sensor_id;sensor_type;location;lat;lon;timestamp;P1;durP1;ratioP1;P2;durP2;ratioP2
72674;SDS011;60752;53.962;9.614;2023-03-24T00:21:42;10.87;;;4.90;;
72674;SDS011;60752;53.962;9.614;2023-03-24T00:51:44;10.38;;;4.03;;
72674;SDS011;60752;53.962;9.614;2023-03-24T01:21:46;9.10;;;3.13;;
72674;SDS011;60752;53.962;9.614;2023-03-24T01:51:49;8.10;;;2.50;;
72674;SDS011;60752;53.962;9.614;2023-03-24T02:22:02;8.20;;;2.33;;
72674;SDS011;60752;53.962;9.614;2023-03-24T02:52:30;7.43;;;2.93;;
72674;SDS011;60752;53.962;9.614;2023-03-24T03:22:38;7.68;;;3.35;;
72674;SDS011;60752;53.962;9.614;2023-03-24T03:52:43;10.40;;;2.97;;
72674;SDS011;60752;53.962;9.614;2023-03-24T04:22:50;9.70;;;3.57;;
72674;SDS011;60752;53.962;9.614;2023-03-24T04:53:02;7.33;;;3.10;;
72674;SDS011;60752;53.962;9.614;2023-03-24T05:23:04;6.30;;;3.67;;
72674;SDS011;60752;53.962;9.614;2023-03-24T05:53:06;9.32;;;3.88;;
72674;SDS011;60752;53.962;9.614;2023-03-24T06:23:08;6.70;;;3.97;;
72674;SDS011;60752;53.962;9.614;2023-03-24T06:53:10;3.63;;;1.40;;
72674;SDS011;60752;53.962;9.614;2023-03-24T07:23:12;3.33;;;1.30;;
72674;SDS011;60752;53.962;9.614;2023-03-24T07:53:14;7.37;;;1.23;;
72674;SDS011;60752;53.962;9.614;2023-03-24T08:23:15;5.15;;;1.30;;
72674;SDS011;60752;53.962;9.614;2023-03-24T08:53:17;8.70;;;1.57;;
72674;SDS011;60752;53.962;9.614;2023-03-24T09:23:19;5.83;;;1.57;;
72674;SDS011;60752;53.962;9.614;2023-03-24T09:53:25;7.10;;;1.40;;
72674;SDS011;60752;53.962;9.614;2023-03-24T10:23:32;9.73;;;1.90;;
72674;SDS011;60752;53.962;9.614;2023-03-24T10:53:40;5.70;;;1.50;;
72674;SDS011;60752;53.962;9.614;2023-03-24T11:23:42;7.20;;;1.37;;
72674;SDS011;60752;53.962;9.614;2023-03-24T11:53:45;6.03;;;1.53;;
72674;SDS011;60752;53.962;9.614;2023-03-24T12:23:52;9.63;;;1.83;;
72674;SDS011;60752;53.962;9.614;2023-03-24T12:54:02;11.07;;;1.93;;
72674;SDS011;60752;53.962;9.614;2023-03-24T13:24:14;9.48;;;1.63;;
72674;SDS011;60752;53.962;9.614;2023-03-24T13:54:19;10.13;;;2.07;;
72674;SDS011;60752;53.962;9.614;2023-03-24T14:24:24;8.13;;;1.67;;
72674;SDS011;60752;53.962;9.614;2023-03-24T14:54:28;10.67;;;1.73;;
72674;SDS011;60752;53.962;9.614;2023-03-24T15:24:35;5.80;;;1.27;;
72674;SDS011;60752;53.962;9.614;2023-03-24T15:54:39;9.63;;;1.80;;
72674;SDS011;60752;53.962;9.614;2023-03-24T16:24:41;6.60;;;1.17;;
72674;SDS011;60752;53.962;9.614;2023-03-24T16:54:43;8.10;;;1.33;;
72674;SDS011;60752;53.962;9.614;2023-03-24T17:24:45;6.37;;;1.40;;
72674;SDS011;60752;53.962;9.614;2023-03-24T17:54:47;6.50;;;2.13;;
72674;SDS011;60752;53.962;9.614;2023-03-24T18:24:49;6.63;;;1.40;;
72674;SDS011;60752;53.962;9.614;2023-03-24T18:54:50;5.30;;;1.27;;
72674;SDS011;60752;53.962;9.614;2023-03-24T19:24:52;7.43;;;1.70;;
72674;SDS011;60752;53.962;9.614;2023-03-24T19:54:54;8.27;;;1.50;;
72674;SDS011;60752;53.962;9.614;2023-03-24T20:24:56;5.70;;;1.67;;
72674;SDS011;60752;53.962;9.614;2023-03-24T20:54:58;12.02;;;4.22;;
72674;SDS011;60752;53.962;9.614;2023-03-24T21:24:59;4.30;;;1.67;;
72674;SDS011;60752;53.962;9.614;2023-03-24T21:55:01;7.60;;;1.80;;
72674;SDS011;60752;53.962;9.614;2023-03-24T22:25:04;4.40;;;2.10;;
72674;SDS011;60752;53.962;9.614;2023-03-24T22:55:08;7.83;;;1.83;;
72674;SDS011;60752;53.962;9.614;2023-03-24T23:25:10;6.50;;;1.73;;
72674;SDS011;60752;53.962;9.614;2023-03-24T23:55:12;6.67;;;1.80;;
